Laurel Springs, North Carolina
Current Conditions -  °F | °C
As of 7:15 AM on Friday 19 Dec 2014 (Local Time) from KGEV Reporting Station
Overcast Overcast  
Wind Chill: 32°   Ceiling: 3700
Heat Index: 32°   Visibility: 10mi
Dew Point: 12°   Wind: 0mph
Humidity: 43%   Direction: NA
Pressure: 30.07"   Gusts: NA
Location:  36.42°N, 81.26°W
Report Text: KGEV 191215Z AUTO 00000KT 10SM OVC037 00/M11 A3007 RMK AO2 T00021112
Loading
Personal Weather Stations






























Interactive Weather Map New forecast layout! Learn more

10-Day Weather Forecast

Advertisements
Track Severe Weather on mobile